Time;durP1;ratioP1;P1;durP2;ratioP2;P2;SDS_P1;SDS_P2;PMS_P1;PMS_P2;Temp;Humidity;BMP_temperature;BMP_pressure;BME280_temperature;BME280_humidity;BME280_pressure;Samples;Min_cycle;Max_cycle;Signal;HPM_P1;HPM_P2
2020/12/31 05:02:39;;;;;;;6.60;5.50;;;1.90;99.90;;;;;;4975000;23;20546;-65
2020/12/31 05:05:06;;;;;;;5.53;5.00;;;1.80;99.90;;;;;;4974785;28;20451;-65
2020/12/31 05:07:32;;;;;;;5.73;5.13;;;1.80;99.90;;;;;;4974844;28;20455;-64
2020/12/31 05:10:12;;;;;;;6.10;5.60;;;1.80;99.90;;;;;;5012588;23;20490;-61
2020/12/31 05:12:39;;;;;;;6.10;5.50;;;1.90;99.90;;;;;;4975194;28;20454;-61
2020/12/31 05:15:05;;;;;;;5.50;5.00;;;1.80;99.90;;;;;;4974606;28;20528;-60
2020/12/31 05:17:31;;;;;;;5.80;5.30;;;1.80;99.90;;;;;;4974501;28;20465;-60
2020/12/31 05:19:58;;;;;;;5.20;4.80;;;1.80;99.90;;;;;;4974379;28;20604;-60
2020/12/31 05:22:24;;;;;;;5.67;5.17;;;1.80;99.90;;;;;;4974102;28;20517;-61
2020/12/31 05:24:52;;;;;;;5.20;4.70;;;1.70;99.90;;;;;;4973843;28;20454;-61
2020/12/31 05:27:21;;;;;;;6.10;5.47;;;1.60;99.90;;;;;;4974125;28;20460;-61
2020/12/31 05:29:55;;;;;;;4.70;4.30;;;1.60;99.90;;;;;;4974173;28;20485;-61
2020/12/31 05:32:21;;;;;;;4.73;4.30;;;1.50;99.90;;;;;;4974166;28;20466;-61
2020/12/31 05:34:48;;;;;;;5.30;4.80;;;1.40;99.90;;;;;;4974026;28;20461;-61
2020/12/31 05:37:16;;;;;;;5.20;4.70;;;1.40;99.90;;;;;;4973933;28;20521;-61
2020/12/31 05:39:59;;;;;;;5.10;4.70;;;1.30;99.90;;;;;;4973989;28;20483;-60
2020/12/31 05:42:27;;;;;;;4.37;3.90;;;1.30;99.90;;;;;;4973891;28;20443;-61
2020/12/31 05:45:00;;;;;;;6.17;5.03;;;1.30;99.90;;;;;;4973967;28;20451;-61
2020/12/31 05:47:26;;;;;;;5.10;4.70;;;1.30;99.90;;;;;;4973653;28;20458;-60
2020/12/31 05:49:53;;;;;;;4.93;4.33;;;1.20;99.90;;;;;;4973582;28;20475;-60
2020/12/31 05:52:33;;;;;;;4.80;4.30;;;1.20;99.90;;;;;;4973375;28;20498;-60
2020/12/31 05:55:01;;;;;;;3.73;3.43;;;1.20;99.90;;;;;;4973527;28;20974;-61
2020/12/31 05:57:41;;;;;;;5.07;3.63;;;1.20;99.90;;;;;;4975682;28;20461;-60
2020/12/31 06:00:08;;;;;;;3.90;3.60;;;1.20;99.90;;;;;;4977392;28;20573;-61
2020/12/31 06:02:37;;;;;;;3.50;3.30;;;1.10;99.90;;;;;;4977351;28;20459;-61
2020/12/31 06:05:10;;;;;;;3.90;3.60;;;1.20;99.90;;;;;;4978256;28;20813;-60
2020/12/31 06:07:42;;;;;;;4.43;3.83;;;1.20;99.90;;;;;;4978668;28;20481;-60
2020/12/31 06:10:10;;;;;;;3.83;3.60;;;1.20;99.90;;;;;;4977259;28;20482;-61
2020/12/31 06:12:50;;;;;;;4.20;3.80;;;1.20;99.90;;;;;;4977063;28;20454;-61
2020/12/31 06:15:20;;;;;;;4.30;4.00;;;1.30;99.90;;;;;;4977081;28;20446;-61
2020/12/31 06:17:47;;;;;;;9.97;4.77;;;1.30;99.90;;;;;;4977961;28;20465;-61
2020/12/31 06:20:14;;;;;;;4.80;4.40;;;1.30;99.90;;;;;;4976771;28;20541;-61
2020/12/31 06:23:04;;;;;;;4.30;3.90;;;1.30;99.90;;;;;;4977232;28;20455;-61
2020/12/31 06:25:35;;;;;;;4.43;4.00;;;1.40;99.90;;;;;;4975328;28;20946;-61
2020/12/31 06:28:06;;;;;;;4.10;3.80;;;1.30;99.90;;;;;;4977528;28;20531;-60
2020/12/31 06:30:33;;;;;;;5.53;3.90;;;1.30;99.90;;;;;;4977278;28;20470;-61
2020/12/31 06:33:04;;;;;;;3.87;3.50;;;1.30;99.90;;;;;;4976262;28;20950;-61
2020/12/31 06:35:31;;;;;;;4.97;4.47;;;1.30;99.90;;;;;;4976856;28;20968;-61
2020/12/31 06:37:58;;;;;;;3.33;3.10;;;1.30;99.90;;;;;;4976416;28;20459;-61
2020/12/31 06:40:27;;;;;;;4.13;3.83;;;1.30;99.90;;;;;;4976204;28;20505;-60
2020/12/31 06:43:09;;;;;;;3.93;3.47;;;1.30;99.90;;;;;;4976463;28;20573;-60
2020/12/31 06:45:40;;;;;;;3.53;3.33;;;1.20;99.90;;;;;;4976338;28;20455;-61
2020/12/31 06:48:35;;;;;;;3.57;3.33;;;1.20;99.90;;;;;;4976146;28;20929;-60
2020/12/31 06:51:03;;;;;;;4.10;3.80;;;1.20;99.90;;;;;;4976470;28;20502;-60
2020/12/31 06:53:31;;;;;;;4.37;3.97;;;1.30;99.90;;;;;;4976686;28;20458;-60
2020/12/31 06:56:00;;;;;;;4.50;4.10;;;1.30;99.90;;;;;;4976549;28;20609;-60
2020/12/31 06:58:27;;;;;;;4.23;3.83;;;1.30;99.90;;;;;;4977709;28;20454;-60
2020/12/31 07:00:53;;;;;;;6.80;4.27;;;1.40;99.90;;;;;;4976492;28;20482;-60
2020/12/31 07:03:44;;;;;;;4.70;4.20;;;1.40;99.90;;;;;;4975976;28;20860;-60
2020/12/31 07:06:26;;;;;;;4.23;3.93;;;1.40;99.90;;;;;;4976475;28;20490;-60
2020/12/31 07:08:54;;;;;;;5.40;4.90;;;1.40;99.90;;;;;;4975651;28;20451;-60
2020/12/31 07:11:32;;;;;;;5.27;4.40;;;1.40;99.90;;;;;;4976377;28;20435;-60
2020/12/31 07:13:59;;;;;;;3.93;3.63;;;1.40;99.90;;;;;;4976283;28;20459;-60
2020/12/31 07:16:38;;;;;;;7.10;5.33;;;1.40;99.90;;;;;;4976233;28;20450;-60
2020/12/31 07:19:04;;;;;;;4.63;3.77;;;1.30;99.90;;;;;;4976152;28;20470;-60
2020/12/31 07:21:31;;;;;;;4.57;4.17;;;1.40;99.90;;;;;;4976735;28;20482;-61
2020/12/31 07:23:58;;;;;;;4.43;4.03;;;1.30;99.90;;;;;;4976087;28;20459;-60
2020/12/31 07:26:26;;;;;;;5.30;4.00;;;1.30;99.90;;;;;;4975931;28;20493;-60
2020/12/31 07:28:54;;;;;;;4.50;4.10;;;1.40;99.90;;;;;;4975952;28;20494;-62
2020/12/31 07:31:42;;;;;;;5.20;4.03;;;1.30;99.90;;;;;;4975988;28;20435;-63
2020/12/31 07:34:20;;;;;;;4.70;4.30;;;1.40;99.90;;;;;;4975556;28;20922;-61
2020/12/31 07:37:00;;;;;;;4.07;3.67;;;1.40;99.90;;;;;;4976122;28;20446;-62
2020/12/31 07:39:26;;;;;;;4.73;4.33;;;1.70;99.90;;;;;;4979757;28;20485;-61
2020/12/31 07:42:08;;;;;;;4.60;4.20;;;1.70;99.90;;;;;;4977418;28;20455;-62
2020/12/31 07:44:35;;;;;;;4.60;4.20;;;1.90;99.90;;;;;;4976167;28;20850;-62
2020/12/31 07:47:01;;;;;;;7.83;4.40;;;1.90;99.90;;;;;;4976167;28;20455;-62
2020/12/31 07:49:27;;;;;;;4.83;4.40;;;2.00;99.90;;;;;;4975778;28;20506;-63
2020/12/31 07:52:01;;;;;;;9.27;4.70;;;2.10;99.90;;;;;;4976324;28;20455;-62
2020/12/31 07:54:27;;;;;;;5.17;4.60;;;2.30;99.90;;;;;;4975395;28;20542;-62
2020/12/31 07:56:53;;;;;;;5.27;4.77;;;2.70;99.90;;;;;;4975313;28;20463;-61
2020/12/31 07:59:22;;;;;;;4.13;3.73;;;3.20;99.90;;;;;;4975152;28;20847;-62
2020/12/31 08:01:49;;;;;;;5.60;5.10;;;3.50;99.90;;;;;;4975139;28;20466;-62
2020/12/31 08:04:15;;;;;;;5.07;4.57;;;3.50;99.90;;;;;;4975312;28;20490;-62
2020/12/31 08:06:41;;;;;;;5.70;4.40;;;3.40;99.90;;;;;;4975255;28;20455;-62
2020/12/31 08:09:07;;;;;;;5.07;4.43;;;3.30;99.90;;;;;;4975021;28;20513;-62
2020/12/31 08:11:35;;;;;;;5.30;4.80;;;3.20;99.90;;;;;;4975625;28;20439;-62
2020/12/31 08:14:02;;;;;;;6.57;5.00;;;3.00;99.90;;;;;;4975170;28;20498;-62
2020/12/31 08:16:28;;;;;;;5.47;4.87;;;2.90;99.90;;;;;;4974866;28;20458;-62
2020/12/31 08:18:56;;;;;;;5.70;5.10;;;2.90;99.90;;;;;;4974314;28;20459;-61
2020/12/31 08:21:23;;;;;;;8.33;6.30;;;2.80;99.90;;;;;;4974457;28;20474;-62
2020/12/31 08:24:02;;;;;;;5.83;5.23;;;2.70;99.90;;;;;;4974724;28;20493;-63
2020/12/31 08:26:29;;;;;;;6.13;5.53;;;2.60;99.90;;;;;;4974674;28;20445;-63
2020/12/31 08:28:55;;;;;;;7.50;5.80;;;2.70;99.90;;;;;;4974630;28;20459;-64
2020/12/31 08:31:25;;;;;;;6.20;5.67;;;2.60;99.90;;;;;;4974931;28;20458;-63
2020/12/31 08:33:59;;;;;;;6.13;5.60;;;2.60;99.90;;;;;;4974607;28;20477;-63
2020/12/31 08:36:26;;;;;;;5.80;5.30;;;2.70;99.90;;;;;;4974457;28;20445;-63
2020/12/31 08:38:54;;;;;;;6.80;6.20;;;2.70;99.90;;;;;;4974499;28;20458;-63
2020/12/31 08:41:21;;;;;;;5.97;5.47;;;2.70;99.90;;;;;;4974138;28;20485;-63
2020/12/31 08:43:47;;;;;;;5.73;5.23;;;2.70;99.90;;;;;;4975138;28;20537;-63
2020/12/31 08:46:19;;;;;;;7.07;5.10;;;2.70;99.90;;;;;;4974535;28;20455;-63
2020/12/31 08:48:53;;;;;;;6.17;5.63;;;2.70;99.90;;;;;;4974096;28;20439;-63
2020/12/31 08:51:20;;;;;;;6.63;6.03;;;2.60;99.90;;;;;;4974190;28;20930;-62
2020/12/31 08:53:50;;;;;;;7.50;6.80;;;2.80;99.90;;;;;;4974242;28;20462;-63
2020/12/31 08:56:17;;;;;;;5.70;5.20;;;3.00;99.90;;;;;;4974220;28;20458;-63
2020/12/31 08:58:43;;;;;;;6.23;5.73;;;3.00;99.90;;;;;;4974317;28;20442;-63
2020/12/31 09:01:23;;;;;;;6.67;5.97;;;3.00;99.90;;;;;;4974809;28;20478;-64
2020/12/31 09:03:49;;;;;;;5.97;5.37;;;3.00;99.90;;;;;;4974909;28;20446;-64
2020/12/31 09:06:24;;;;;;;7.40;6.70;;;3.10;99.90;;;;;;4975089;28;20459;-63
2020/12/31 09:08:52;;;;;;;6.50;5.80;;;3.10;99.90;;;;;;4975336;28;20469;-63
2020/12/31 09:11:25;;;;;;;6.93;6.23;;;3.10;99.90;;;;;;4975764;28;20542;-63
2020/12/31 09:13:52;;;;;;;6.90;6.20;;;3.00;99.90;;;;;;4974620;28;20754;-63
2020/12/31 09:16:18;;;;;;;6.90;6.00;;;3.00;99.90;;;;;;4974636;28;20462;-63
2020/12/31 09:18:44;;;;;;;6.90;6.20;;;3.00;99.90;;;;;;4974292;28;20454;-63
2020/12/31 09:21:11;;;;;;;7.53;6.53;;;3.10;99.90;;;;;;4974177;28;20475;-62
2020/12/31 09:23:39;;;;;;;6.17;5.60;;;3.10;99.90;;;;;;4974573;28;20462;-62
2020/12/31 09:26:05;;;;;;;11.00;5.70;;;3.20;99.90;;;;;;4974254;28;20455;-62
2020/12/31 09:28:32;;;;;;;7.10;6.50;;;3.70;99.90;;;;;;4974204;28;20776;-62
2020/12/31 09:31:15;;;;;;;6.00;5.50;;;4.10;99.90;;;;;;4975235;28;20479;-62
2020/12/31 09:33:41;;;;;;;7.20;6.50;;;4.30;99.90;;;;;;4977678;28;20925;-62
2020/12/31 09:36:07;;;;;;;6.20;5.70;;;4.50;99.90;;;;;;4977663;28;20450;-62
2020/12/31 09:38:33;;;;;;;6.30;5.73;;;4.70;99.90;;;;;;4978721;28;20462;-62
2020/12/31 09:41:00;;;;;;;7.20;6.00;;;4.50;99.90;;;;;;4977844;28;20486;-62
2020/12/31 09:43:26;;;;;;;6.67;6.13;;;4.50;99.90;;;;;;4977991;28;20459;-62
2020/12/31 09:45:52;;;;;;;6.90;6.30;;;4.60;99.90;;;;;;4977803;28;20465;-63
2020/12/31 09:48:19;;;;;;;6.70;6.00;;;4.90;99.90;;;;;;4978018;28;20551;-62
2020/12/31 09:50:45;;;;;;;8.23;7.43;;;4.60;99.90;;;;;;4979237;28;20992;-61
2020/12/31 09:53:11;;;;;;;8.10;7.30;;;4.50;99.90;;;;;;4978510;28;20524;-62
2020/12/31 09:55:37;;;;;;;7.07;6.40;;;4.40;99.90;;;;;;4978017;28;20462;-61
2020/12/31 09:58:04;;;;;;;8.83;7.50;;;4.30;99.90;;;;;;4979760;28;20462;-61
2020/12/31 10:00:30;;;;;;;7.83;7.03;;;4.20;99.90;;;;;;4978623;28;20529;-61
2020/12/31 10:02:56;;;;;;;9.00;8.10;;;4.10;99.90;;;;;;4978462;28;20473;-62
2020/12/31 10:05:25;;;;;;;7.53;6.83;;;4.10;99.90;;;;;;4977063;28;20921;-62
2020/12/31 10:07:51;;;;;;;8.80;8.00;;;4.10;99.90;;;;;;4977494;28;20843;-61
2020/12/31 10:10:17;;;;;;;9.13;8.23;;;3.90;99.90;;;;;;4976989;28;20478;-61
2020/12/31 10:12:43;;;;;;;9.07;8.00;;;3.80;99.90;;;;;;4977261;28;20513;-61
2020/12/31 10:15:10;;;;;;;10.00;9.00;;;3.70;99.90;;;;;;4977561;28;20466;-61
2020/12/31 10:17:36;;;;;;;11.00;9.80;;;3.60;99.90;;;;;;4977140;28;20458;-61
2020/12/31 10:20:03;;;;;;;10.47;9.37;;;3.50;99.90;;;;;;4976695;28;20954;-62
2020/12/31 10:22:29;;;;;;;9.20;8.30;;;3.40;99.90;;;;;;4977038;28;20457;-61
2020/12/31 10:24:55;;;;;;;9.47;8.17;;;3.40;99.90;;;;;;4977177;28;20458;-61
2020/12/31 10:27:22;;;;;;;8.67;7.83;;;3.30;99.90;;;;;;4977103;28;20451;-62
2020/12/31 10:29:48;;;;;;;10.50;9.43;;;3.50;99.90;;;;;;4976877;28;20477;-61
2020/12/31 10:32:15;;;;;;;11.27;9.47;;;3.40;99.90;;;;;;4977062;28;20968;-62
2020/12/31 10:34:41;;;;;;;9.40;8.40;;;3.40;99.90;;;;;;4977037;28;20455;-61
2020/12/31 10:37:07;;;;;;;9.87;8.70;;;3.40;99.90;;;;;;4976709;28;20969;-60
2020/12/31 10:39:33;;;;;;;8.33;7.57;;;3.40;99.90;;;;;;4976649;28;20490;-62
2020/12/31 10:41:59;;;;;;;8.73;7.90;;;3.40;99.90;;;;;;4976311;28;20462;-61
2020/12/31 10:44:26;;;;;;;8.80;7.87;;;3.40;99.90;;;;;;4976330;28;20470;-61
2020/12/31 10:46:54;;;;;;;9.53;7.73;;;3.40;99.90;;;;;;4976930;28;20454;-61
2020/12/31 10:49:23;;;;;;;8.20;7.50;;;3.50;99.90;;;;;;4976881;28;20491;-61
2020/12/31 10:51:50;;;;;;;8.50;7.70;;;3.50;99.90;;;;;;4976749;28;20490;-61
2020/12/31 10:54:16;;;;;;;8.37;7.57;;;3.60;99.90;;;;;;4976759;28;20439;-61
2020/12/31 10:56:42;;;;;;;8.93;8.03;;;3.60;99.90;;;;;;4976726;28;20455;-62
2020/12/31 10:59:08;;;;;;;8.93;8.03;;;3.70;99.90;;;;;;4976870;28;20479;-62
2020/12/31 11:01:34;;;;;;;9.20;8.27;;;3.80;99.90;;;;;;4976681;28;20482;-62
2020/12/31 11:04:00;;;;;;;9.43;8.33;;;3.80;99.90;;;;;;4976525;28;20454;-62
2020/12/31 11:06:30;;;;;;;9.43;8.53;;;3.90;99.90;;;;;;4976029;28;20881;-62
2020/12/31 11:08:56;;;;;;;8.13;7.30;;;3.90;99.90;;;;;;4975951;28;20542;-62
2020/12/31 11:11:24;;;;;;;8.53;7.53;;;3.90;99.90;;;;;;4976650;28;20740;-60
2020/12/31 11:13:51;;;;;;;8.77;7.87;;;4.00;99.90;;;;;;4976233;28;20458;-62
2020/12/31 11:16:17;;;;;;;9.20;7.33;;;4.00;99.90;;;;;;4976750;28;20801;-62
2020/12/31 11:18:44;;;;;;;7.07;6.43;;;4.10;99.90;;;;;;4976022;28;20866;-62
2020/12/31 11:21:14;;;;;;;8.70;7.80;;;4.00;99.90;;;;;;4976206;28;20544;-62
2020/12/31 11:23:41;;;;;;;7.33;6.60;;;4.10;99.90;;;;;;4975799;28;20446;-61
2020/12/31 11:26:10;;;;;;;12.43;7.03;;;4.10;99.90;;;;;;4976031;28;20455;-61
2020/12/31 11:28:37;;;;;;;7.33;6.63;;;4.10;99.90;;;;;;4976044;28;20439;-61
2020/12/31 11:31:04;;;;;;;7.83;7.23;;;4.10;99.90;;;;;;4976014;28;20546;-61
2020/12/31 11:33:30;;;;;;;8.00;7.23;;;4.10;99.90;;;;;;4975618;28;20458;-61
2020/12/31 11:35:56;;;;;;;8.63;7.77;;;4.00;99.90;;;;;;4975906;28;20455;-61
2020/12/31 11:38:22;;;;;;;8.73;7.83;;;4.00;99.90;;;;;;4975956;28;20541;-61
2020/12/31 11:40:49;;;;;;;9.00;8.10;;;4.00;99.90;;;;;;4975592;28;20539;-61
2020/12/31 11:43:16;;;;;;;8.60;7.90;;;3.90;99.90;;;;;;4975808;28;20833;-60
2020/12/31 11:45:42;;;;;;;8.30;7.60;;;3.90;99.90;;;;;;4975698;28;20509;-61
2020/12/31 11:48:08;;;;;;;7.63;7.03;;;3.90;99.90;;;;;;4975591;28;20461;-62
2020/12/31 11:50:34;;;;;;;7.87;6.70;;;3.90;99.90;;;;;;4975398;28;20478;-62
2020/12/31 11:53:00;;;;;;;14.63;7.00;;;3.90;99.90;;;;;;4975327;28;20481;-60
2020/12/31 11:55:27;;;;;;;9.63;7.47;;;3.80;99.90;;;;;;4975425;28;20459;-62
2020/12/31 11:57:54;;;;;;;7.87;7.17;;;3.80;99.90;;;;;;4975552;28;20454;-61
2020/12/31 12:00:21;;;;;;;7.87;7.07;;;3.90;99.90;;;;;;4975808;28;20487;-62
2020/12/31 12:02:47;;;;;;;8.33;7.53;;;3.90;99.90;;;;;;4975896;28;20450;-61
2020/12/31 12:05:13;;;;;;;9.37;8.20;;;4.10;99.90;;;;;;4975479;28;20895;-61
2020/12/31 12:07:39;;;;;;;7.97;7.17;;;4.10;99.90;;;;;;4975912;28;20458;-61
2020/12/31 12:10:07;;;;;;;7.47;6.83;;;4.20;99.90;;;;;;4975931;28;20482;-60
2020/12/31 12:12:33;;;;;;;8.03;7.23;;;4.30;99.90;;;;;;4976061;28;20459;-61
2020/12/31 12:15:00;;;;;;;10.10;7.70;;;4.30;99.90;;;;;;4975188;28;20857;-61
2020/12/31 12:17:26;;;;;;;8.37;7.50;;;4.10;99.90;;;;;;4975303;28;20450;-61
2020/12/31 12:19:53;;;;;;;7.77;7.03;;;4.10;99.90;;;;;;4975186;28;20475;-61
2020/12/31 12:22:19;;;;;;;9.33;8.07;;;4.10;99.90;;;;;;4975550;28;20911;-62
2020/12/31 12:24:45;;;;;;;8.60;7.47;;;4.10;99.90;;;;;;4975190;28;20557;-62
2020/12/31 12:27:11;;;;;;;7.90;7.10;;;4.10;99.90;;;;;;4975112;28;20447;-62
2020/12/31 12:29:37;;;;;;;8.87;7.93;;;4.10;99.90;;;;;;4974776;28;20527;-61
2020/12/31 12:32:09;;;;;;;9.83;8.83;;;4.10;99.90;;;;;;4975159;28;20459;-61
2020/12/31 12:34:35;;;;;;;9.07;7.13;;;4.10;99.90;;;;;;4975701;28;20922;-61
2020/12/31 12:37:01;;;;;;;8.00;7.20;;;4.30;99.90;;;;;;4975554;28;20459;-60
2020/12/31 12:39:28;;;;;;;9.87;8.47;;;4.30;99.90;;;;;;4975172;28;20989;-62
2020/12/31 12:41:56;;;;;;;7.87;7.07;;;4.30;99.90;;;;;;4974829;28;20502;-63
2020/12/31 12:44:22;;;;;;;9.17;7.60;;;4.40;99.90;;;;;;4976118;28;20458;-63
2020/12/31 12:46:48;;;;;;;15.63;6.53;;;4.40;99.90;;;;;;4975373;28;20458;-62
2020/12/31 12:49:15;;;;;;;7.20;6.50;;;4.50;99.90;;;;;;4975287;28;20481;-62
2020/12/31 12:51:42;;;;;;;8.03;7.27;;;4.50;99.90;;;;;;4975487;28;20969;-64
2020/12/31 12:54:08;;;;;;;7.67;6.70;;;4.50;99.90;;;;;;4975733;28;20509;-62
2020/12/31 12:56:34;;;;;;;7.30;6.60;;;4.40;99.90;;;;;;4975813;28;20459;-61
2020/12/31 12:59:00;;;;;;;7.00;6.40;;;4.40;99.90;;;;;;4974792;28;20466;-61
2020/12/31 13:01:26;;;;;;;6.90;6.17;;;4.30;99.90;;;;;;4974628;28;20525;-60
2020/12/31 13:03:53;;;;;;;7.70;7.10;;;4.40;99.90;;;;;;4974715;28;20535;-60
2020/12/31 13:06:20;;;;;;;10.13;6.50;;;4.50;99.90;;;;;;4978653;28;20855;-61
2020/12/31 13:08:46;;;;;;;6.77;6.10;;;4.50;99.90;;;;;;4980978;28;20458;-61
2020/12/31 13:11:12;;;;;;;7.73;6.70;;;4.50;99.90;;;;;;4980908;28;20450;-61
2020/12/31 13:13:39;;;;;;;6.93;6.33;;;4.60;99.90;;;;;;4980683;28;20455;-61
2020/12/31 13:16:07;;;;;;;6.97;6.37;;;4.60;99.90;;;;;;4980878;28;20553;-61
2020/12/31 13:18:33;;;;;;;7.40;6.80;;;4.60;99.90;;;;;;4980826;28;20462;-61
2020/12/31 13:20:59;;;;;;;7.00;6.30;;;4.60;99.90;;;;;;4980968;28;20493;-61
2020/12/31 13:23:27;;;;;;;6.27;5.70;;;4.60;99.90;;;;;;4980558;28;20462;-61
2020/12/31 13:25:54;;;;;;;6.33;5.80;;;4.70;99.90;;;;;;4980877;28;20580;-61
2020/12/31 13:28:20;;;;;;;6.53;5.97;;;4.70;99.90;;;;;;4980370;28;20949;-61
2020/12/31 13:30:46;;;;;;;6.27;5.67;;;4.70;99.90;;;;;;4980756;28;20474;-61
2020/12/31 13:33:12;;;;;;;6.37;5.87;;;4.80;99.90;;;;;;4980484;28;20940;-61
2020/12/31 13:35:42;;;;;;;7.03;5.73;;;4.70;99.90;;;;;;4980659;28;20454;-61
2020/12/31 13:38:08;;;;;;;4.97;4.57;;;4.70;99.90;;;;;;4980688;28;20489;-61
2020/12/31 13:40:35;;;;;;;7.77;4.90;;;4.70;99.90;;;;;;4980930;28;20486;-60
2020/12/31 13:43:02;;;;;;;6.93;5.93;;;4.80;99.90;;;;;;4981145;28;20541;-62
2020/12/31 13:45:28;;;;;;;6.90;5.53;;;4.80;99.90;;;;;;4980712;28;20914;-61
2020/12/31 13:47:54;;;;;;;6.70;5.67;;;4.60;99.90;;;;;;4980888;28;20461;-60
2020/12/31 13:50:21;;;;;;;6.27;5.77;;;4.70;99.90;;;;;;4980963;28;20474;-61
2020/12/31 13:52:47;;;;;;;5.40;4.80;;;4.70;99.90;;;;;;4980817;28;20513;-60
2020/12/31 13:55:13;;;;;;;5.77;5.27;;;4.90;99.90;;;;;;4980650;28;20457;-60
2020/12/31 13:57:40;;;;;;;5.10;4.70;;;4.90;99.90;;;;;;4980637;28;20458;-60
2020/12/31 14:00:08;;;;;;;5.50;5.00;;;5.00;99.90;;;;;;4981026;28;20481;-60
2020/12/31 14:02:34;;;;;;;4.87;4.47;;;5.10;99.90;;;;;;4980369;28;20462;-61
2020/12/31 14:05:01;;;;;;;5.07;4.67;;;5.20;99.90;;;;;;4980533;28;20510;-62
2020/12/31 14:07:27;;;;;;;5.23;4.20;;;5.30;99.90;;;;;;4979988;28;20953;-62
2020/12/31 14:09:53;;;;;;;5.37;4.87;;;5.50;99.90;;;;;;4979921;28;21043;-61
2020/12/31 14:12:19;;;;;;;4.87;4.47;;;5.70;99.90;;;;;;4980330;28;20454;-62
2020/12/31 14:14:46;;;;;;;5.27;4.77;;;5.70;99.90;;;;;;4980743;28;20462;-61
2020/12/31 14:17:13;;;;;;;4.53;4.23;;;5.60;99.90;;;;;;4978381;28;20505;-62
2020/12/31 14:19:40;;;;;;;4.20;3.87;;;5.60;99.90;;;;;;4977579;28;20537;-61
2020/12/31 14:22:08;;;;;;;4.40;4.10;;;5.60;99.90;;;;;;4977362;28;20478;-61
2020/12/31 14:24:35;;;;;;;4.40;4.00;;;5.70;99.90;;;;;;4977375;28;21170;-61
2020/12/31 14:27:02;;;;;;;5.57;5.17;;;5.80;99.90;;;;;;4976896;28;20493;-61
2020/12/31 14:29:28;;;;;;;5.07;4.60;;;5.70;99.90;;;;;;4977210;28;20536;-61
2020/12/31 14:31:55;;;;;;;5.10;4.70;;;5.70;99.90;;;;;;4977849;28;20517;-60
2020/12/31 14:34:21;;;;;;;5.30;4.80;;;5.60;99.90;;;;;;4977176;28;20462;-62
2020/12/31 14:36:48;;;;;;;6.10;5.50;;;5.50;99.90;;;;;;4976568;28;20450;-62
2020/12/31 14:39:15;;;;;;;5.20;4.80;;;5.30;99.90;;;;;;4977725;28;20479;-61
2020/12/31 14:41:44;;;;;;;5.83;5.40;;;5.20;99.90;;;;;;4978594;28;20523;-60
2020/12/31 14:44:10;;;;;;;5.50;5.00;;;5.50;99.90;;;;;;4977906;28;20454;-60
2020/12/31 14:46:36;;;;;;;7.33;5.83;;;5.50;99.90;;;;;;4976727;28;20965;-61
2020/12/31 14:49:04;;;;;;;6.53;5.70;;;5.50;99.90;;;;;;4976705;28;20465;-61
2020/12/31 14:51:32;;;;;;;6.30;5.67;;;5.50;99.90;;;;;;4976612;28;20451;-61
2020/12/31 14:53:58;;;;;;;5.60;5.10;;;5.40;99.90;;;;;;4976559;28;20539;-61
2020/12/31 14:56:26;;;;;;;5.80;5.40;;;5.30;99.90;;;;;;4976719;28;20459;-61
2020/12/31 14:58:53;;;;;;;6.33;5.50;;;5.20;99.90;;;;;;4976561;28;20439;-61
2020/12/31 15:01:19;;;;;;;5.53;5.03;;;5.20;99.90;;;;;;4976136;28;20469;-61
2020/12/31 15:03:46;;;;;;;5.70;5.30;;;5.10;99.90;;;;;;4976545;28;20826;-61
2020/12/31 15:06:13;;;;;;;5.80;5.30;;;5.10;99.90;;;;;;4976540;28;20458;-61
2020/12/31 15:08:41;;;;;;;7.30;6.17;;;5.10;99.90;;;;;;4976321;28;20926;-61
2020/12/31 15:11:08;;;;;;;6.57;6.07;;;5.10;99.90;;;;;;4977561;28;20502;-60
2020/12/31 15:13:35;;;;;;;6.50;5.97;;;5.10;99.90;;;;;;4979614;28;20957;-61
2020/12/31 15:16:02;;;;;;;6.67;6.07;;;5.00;99.90;;;;;;4977315;28;20450;-62
2020/12/31 15:18:29;;;;;;;7.73;6.93;;;5.10;99.90;;;;;;4976601;28;20482;-61
2020/12/31 15:20:55;;;;;;;7.27;6.67;;;5.00;99.90;;;;;;4976326;28;20482;-61
2020/12/31 15:23:22;;;;;;;6.40;5.80;;;5.00;99.90;;;;;;4976390;28;20466;-60
2020/12/31 15:25:48;;;;;;;6.17;5.73;;;5.00;99.90;;;;;;4976394;28;20481;-60
2020/12/31 15:28:14;;;;;;;6.37;5.70;;;5.00;99.90;;;;;;4975658;28;20459;-62
2020/12/31 15:30:41;;;;;;;6.53;5.83;;;5.00;99.90;;;;;;4976405;28;20479;-61
2020/12/31 15:33:07;;;;;;;5.80;5.30;;;5.00;99.90;;;;;;4976814;28;20459;-62
2020/12/31 15:35:33;;;;;;;6.30;5.70;;;5.10;99.90;;;;;;4976315;28;20458;-62
2020/12/31 15:37:59;;;;;;;7.33;6.63;;;5.00;99.90;;;;;;4976095;28;20459;-62
2020/12/31 15:40:27;;;;;;;6.00;5.40;;;5.10;99.90;;;;;;4975975;28;20482;-62
2020/12/31 15:42:53;;;;;;;5.03;4.63;;;5.00;99.90;;;;;;4976195;28;20466;-62
2020/12/31 15:45:19;;;;;;;6.63;6.13;;;5.00;99.90;;;;;;4976578;28;20461;-62
2020/12/31 15:47:46;;;;;;;4.80;4.50;;;5.00;99.90;;;;;;4976052;28;20458;-63
2020/12/31 15:50:13;;;;;;;5.43;4.80;;;5.00;99.90;;;;;;4975931;28;20510;-63
2020/12/31 15:52:39;;;;;;;4.53;4.13;;;4.90;99.90;;;;;;4975920;28;20462;-61
2020/12/31 15:55:07;;;;;;;6.60;4.63;;;4.90;99.90;;;;;;4975687;28;20455;-62
2020/12/31 15:57:34;;;;;;;5.93;5.00;;;5.00;99.90;;;;;;4975442;28;20858;-62
2020/12/31 16:00:00;;;;;;;4.57;4.10;;;5.00;99.90;;;;;;4975629;28;20489;-62
2020/12/31 16:02:26;;;;;;;4.47;4.17;;;5.10;99.90;;;;;;4975496;28;21012;-62
2020/12/31 16:04:52;;;;;;;4.90;4.50;;;5.10;99.90;;;;;;4975761;28;20458;-62
2020/12/31 16:07:18;;;;;;;4.93;4.63;;;5.10;99.90;;;;;;4975797;28;20466;-62
2020/12/31 16:09:44;;;;;;;5.07;4.67;;;5.10;99.90;;;;;;4975424;28;20493;-62
2020/12/31 16:12:10;;;;;;;5.40;4.90;;;5.20;99.90;;;;;;4975248;28;21005;-62
2020/12/31 16:14:39;;;;;;;4.97;4.57;;;5.20;99.90;;;;;;4975501;28;20446;-62
2020/12/31 16:17:05;;;;;;;5.30;4.70;;;5.10;99.90;;;;;;4975571;28;20449;-62
2020/12/31 16:19:32;;;;;;;6.33;5.20;;;5.20;99.90;;;;;;4975375;28;20482;-63
2020/12/31 16:21:58;;;;;;;5.20;4.80;;;5.20;99.90;;;;;;4975459;28;20496;-62
2020/12/31 16:24:25;;;;;;;5.40;5.00;;;5.20;99.90;;;;;;4975527;28;20459;-62
2020/12/31 16:26:51;;;;;;;5.60;5.10;;;5.20;99.90;;;;;;4975463;28;20443;-62
2020/12/31 16:29:18;;;;;;;5.77;5.27;;;5.20;99.90;;;;;;4975335;28;20533;-61
2020/12/31 16:31:45;;;;;;;5.50;5.10;;;5.20;99.90;;;;;;4975419;28;20518;-61
2020/12/31 16:34:11;;;;;;;7.50;6.90;;;5.20;99.90;;;;;;4975311;28;20451;-61
2020/12/31 16:36:37;;;;;;;8.57;7.70;;;5.10;99.90;;;;;;4975225;28;20459;-63
2020/12/31 16:39:04;;;;;;;6.50;5.90;;;5.00;99.90;;;;;;4974784;28;20946;-61
2020/12/31 16:41:30;;;;;;;6.00;5.50;;;5.00;99.90;;;;;;4975626;28;20478;-61
2020/12/31 16:43:57;;;;;;;6.23;5.73;;;5.10;99.90;;;;;;4977098;28;20462;-61
2020/12/31 16:46:23;;;;;;;6.50;5.90;;;5.10;99.90;;;;;;4975810;28;20519;-62
2020/12/31 16:48:50;;;;;;;6.30;5.70;;;5.10;99.90;;;;;;4975150;28;20961;-61
2020/12/31 16:51:18;;;;;;;7.33;6.23;;;5.00;99.90;;;;;;4975284;28;20451;-61
2020/12/31 16:53:44;;;;;;;6.50;6.00;;;5.00;99.90;;;;;;4975077;28;20451;-62
2020/12/31 16:56:12;;;;;;;8.00;7.20;;;5.00;99.90;;;;;;4974881;28;20458;-62
2020/12/31 16:58:38;;;;;;;8.30;7.40;;;5.00;99.90;;;;;;4975346;28;20489;-61
2020/12/31 17:01:04;;;;;;;7.90;7.17;;;5.00;99.90;;;;;;4976318;28;20541;-62
2020/12/31 17:03:31;;;;;;;7.53;6.83;;;4.90;99.90;;;;;;4975494;28;20462;-61
2020/12/31 17:05:58;;;;;;;7.67;6.90;;;4.80;99.90;;;;;;4976203;28;20451;-61
2020/12/31 17:08:24;;;;;;;6.13;5.63;;;4.80;99.90;;;;;;4976315;28;20486;-61
2020/12/31 17:10:50;;;;;;;5.50;5.10;;;4.60;99.90;;;;;;4974664;28;20481;-62
2020/12/31 17:13:16;;;;;;;5.93;5.43;;;4.60;99.90;;;;;;4974694;28;20458;-62
2020/12/31 17:15:42;;;;;;;5.97;5.37;;;4.50;99.90;;;;;;4974823;28;20454;-63
2020/12/31 17:18:09;;;;;;;10.47;7.80;;;4.50;99.90;;;;;;4974787;28;20454;-62
2020/12/31 17:20:35;;;;;;;9.80;7.57;;;4.50;99.90;;;;;;4975325;28;20479;-61
2020/12/31 17:23:02;;;;;;;7.93;7.13;;;4.60;99.90;;;;;;4974464;28;20459;-61
2020/12/31 17:25:28;;;;;;;5.80;4.90;;;4.70;99.90;;;;;;4974828;28;20466;-62
2020/12/31 17:27:55;;;;;;;6.90;5.37;;;4.70;99.90;;;;;;4975311;28;20451;-63
2020/12/31 17:30:21;;;;;;;10.63;6.30;;;4.70;99.90;;;;;;4975375;28;20475;-67
2020/12/31 17:32:47;;;;;;;9.27;7.27;;;4.60;99.90;;;;;;4975666;28;20454;-65
2020/12/31 17:35:13;;;;;;;7.67;6.90;;;4.60;99.90;;;;;;4975662;28;20455;-63
2020/12/31 17:37:39;;;;;;;7.57;6.77;;;4.60;99.90;;;;;;4974772;28;20505;-62
2020/12/31 17:40:08;;;;;;;6.87;6.27;;;4.50;99.90;;;;;;4975290;28;20835;-63
2020/12/31 17:42:34;;;;;;;7.53;6.83;;;4.40;99.90;;;;;;4974955;28;20529;-64
2020/12/31 17:45:00;;;;;;;7.13;6.37;;;4.40;99.90;;;;;;4974658;28;20962;-63
2020/12/31 17:47:27;;;;;;;7.53;6.83;;;4.40;99.90;;;;;;4975052;28;20459;-63
2020/12/31 17:49:53;;;;;;;6.23;5.50;;;4.40;99.90;;;;;;4974895;28;20470;-63
2020/12/31 17:52:19;;;;;;;6.73;6.13;;;4.30;99.90;;;;;;4976636;28;20450;-64
2020/12/31 17:54:45;;;;;;;7.70;6.90;;;4.30;99.90;;;;;;4978421;28;20973;-63
2020/12/31 17:57:12;;;;;;;8.70;7.90;;;4.20;99.90;;;;;;4978597;28;20490;-63
2020/12/31 17:59:38;;;;;;;7.97;7.20;;;4.20;99.90;;;;;;4978389;28;20862;-63
2020/12/31 18:02:05;;;;;;;8.93;8.00;;;4.10;99.90;;;;;;4978516;28;20486;-63